createdAt,value
2023-05-19T00:01:31.169Z,11.30
2023-05-19T00:04:02.888Z,11.20
2023-05-19T00:06:32.219Z,11.20
2023-05-19T00:09:09.964Z,11.20
2023-05-19T00:11:38.536Z,11.10
2023-05-19T00:14:10.046Z,11.10
2023-05-19T00:16:38.083Z,11.00
2023-05-19T00:19:06.662Z,11.00
2023-05-19T00:21:33.792Z,11.00
2023-05-19T00:24:01.337Z,10.90
2023-05-19T00:26:28.444Z,10.90
2023-05-19T00:29:02.551Z,10.80
2023-05-19T00:31:30.106Z,10.80
2023-05-19T00:33:58.142Z,10.70
2023-05-19T00:36:26.442Z,10.70
2023-05-19T00:38:53.666Z,10.70
2023-05-19T00:41:21.154Z,10.70
2023-05-19T00:43:48.206Z,10.60
2023-05-19T00:46:15.591Z,10.60
2023-05-19T00:48:44.806Z,10.50
2023-05-19T00:51:16.949Z,10.50
2023-05-19T00:53:49.334Z,10.50
2023-05-19T00:56:17.497Z,10.50
2023-05-19T00:58:46.186Z,10.40
2023-05-19T01:01:17.233Z,10.40
2023-05-19T01:03:45.093Z,10.40
2023-05-19T01:06:12.986Z,10.30
2023-05-19T01:08:42.224Z,10.30
2023-05-19T01:11:09.296Z,10.30
2023-05-19T01:13:36.991Z,10.30
2023-05-19T01:16:16.153Z,10.20
2023-05-19T01:19:01.962Z,10.20
2023-05-19T01:21:36.989Z,10.20
2023-05-19T01:24:23.027Z,10.10
2023-05-19T01:27:11.930Z,10.10
2023-05-19T01:29:44.685Z,10.10
2023-05-19T01:32:13.354Z,10.10
2023-05-19T01:34:44.225Z,10.00
2023-05-19T01:37:13.271Z,10.00
2023-05-19T01:39:41.514Z,10.00
2023-05-19T01:42:09.689Z,9.90
2023-05-19T01:44:37.659Z,9.90
2023-05-19T01:47:05.815Z,9.90
2023-05-19T01:49:32.947Z,9.90
2023-05-19T01:51:59.971Z,9.80
2023-05-19T01:54:27.510Z,9.80
2023-05-19T01:57:13.074Z,9.70
2023-05-19T02:00:05.627Z,9.70
2023-05-19T02:03:00.086Z,9.70
2023-05-19T02:05:31.530Z,9.60
2023-05-19T02:08:30.999Z,9.60
2023-05-19T02:11:04.358Z,9.60
2023-05-19T02:13:36.692Z,9.50
2023-05-19T02:16:06.073Z,9.50
2023-05-19T02:18:34.184Z,9.50
2023-05-19T02:21:02.362Z,9.50
2023-05-19T02:23:29.469Z,9.50
2023-05-19T02:25:57.684Z,9.50
2023-05-19T02:28:28.594Z,9.40
2023-05-19T02:30:55.753Z,9.40
2023-05-19T02:33:26.662Z,9.40
2023-05-19T02:35:53.775Z,9.40
2023-05-19T02:38:21.926Z,9.40
2023-05-19T02:40:53.045Z,9.40
2023-05-19T02:43:20.318Z,9.30
2023-05-19T02:45:47.378Z,9.30
2023-05-19T02:48:14.810Z,9.30
2023-05-19T02:50:43.110Z,9.30
2023-05-19T02:53:10.157Z,9.30
2023-05-19T02:55:37.589Z,9.30
2023-05-19T02:58:05.343Z,9.30
2023-05-19T03:00:32.810Z,9.20
2023-05-19T03:03:02.828Z,9.30
2023-05-19T03:05:31.233Z,9.20
2023-05-19T03:07:58.447Z,9.20
2023-05-19T03:10:25.463Z,9.20
2023-05-19T03:12:52.658Z,9.20
2023-05-19T03:15:21.003Z,9.20
2023-05-19T03:17:48.243Z,9.10
2023-05-19T03:20:15.895Z,9.10
2023-05-19T03:22:43.679Z,9.10
2023-05-19T03:25:10.948Z,9.10
2023-05-19T03:27:38.284Z,9.10
2023-05-19T03:30:07.054Z,9.10
2023-05-19T03:32:40.471Z,9.10
2023-05-19T03:35:07.948Z,9.10
2023-05-19T03:37:34.963Z,9.10
2023-05-19T03:40:04.196Z,9.00
2023-05-19T03:42:31.933Z,9.00
2023-05-19T03:44:59.312Z,9.00
2023-05-19T03:47:27.096Z,9.00
2023-05-19T03:50:11.957Z,8.90
2023-05-19T03:52:48.931Z,9.00
2023-05-19T03:55:30.445Z,9.00
2023-05-19T03:57:57.768Z,9.00
2023-05-19T04:00:24.702Z,8.90
2023-05-19T04:02:52.444Z,8.90
2023-05-19T04:05:19.559Z,8.90
2023-05-19T04:07:46.960Z,8.90
2023-05-19T04:10:19.337Z,8.90
2023-05-19T04:12:48.096Z,8.90
2023-05-19T04:15:16.373Z,8.90
2023-05-19T04:17:43.515Z,8.90
2023-05-19T04:20:12.956Z,8.90
2023-05-19T04:22:40.066Z,8.90
2023-05-19T04:25:09.084Z,8.90
2023-05-19T04:27:39.325Z,9.00
2023-05-19T04:30:07.733Z,8.90
2023-05-19T04:32:37.656Z,9.00
2023-05-19T04:35:05.927Z,9.00
2023-05-19T04:37:33.116Z,9.00
2023-05-19T04:40:01.621Z,9.00
2023-05-19T04:42:30.913Z,9.00
2023-05-19T04:45:00.547Z,9.00
2023-05-19T04:47:30.204Z,9.10
2023-05-19T04:50:01.288Z,9.10
2023-05-19T04:52:29.002Z,9.20
2023-05-19T04:54:56.262Z,9.20
2023-05-19T04:57:25.135Z,9.20
2023-05-19T04:59:53.035Z,9.20
2023-05-19T05:02:21.808Z,9.20
2023-05-19T05:04:49.084Z,9.30
2023-05-19T05:07:17.206Z,9.30
2023-05-19T05:09:45.145Z,9.40
2023-05-19T05:12:13.600Z,9.40
2023-05-19T05:14:41.967Z,9.40
2023-05-19T05:17:11.766Z,9.40
2023-05-19T05:19:39.168Z,9.40
2023-05-19T05:22:08.481Z,9.50
2023-05-19T05:24:39.289Z,9.50
2023-05-19T05:27:08.295Z,9.60
2023-05-19T05:29:35.701Z,9.60
2023-05-19T05:32:05.089Z,9.70
2023-05-19T05:34:32.832Z,9.80
2023-05-19T05:36:59.917Z,9.80
2023-05-19T05:39:28.561Z,9.90
2023-05-19T05:41:56.110Z,9.90
2023-05-19T05:44:23.062Z,10.00
2023-05-19T05:46:51.004Z,10.10
2023-05-19T05:49:18.480Z,10.10
2023-05-19T05:51:57.868Z,10.20
2023-05-19T05:54:34.127Z,10.20
2023-05-19T05:57:02.663Z,10.30
2023-05-19T05:59:30.175Z,10.40
2023-05-19T06:01:57.535Z,10.40
2023-05-19T06:04:25.794Z,10.50
2023-05-19T06:07:01.432Z,10.60
2023-05-19T06:09:33.029Z,10.70
2023-05-19T06:12:01.013Z,10.70
2023-05-19T06:14:32.741Z,10.80
2023-05-19T06:17:17.828Z,10.90
2023-05-19T06:19:44.973Z,11.00
2023-05-19T06:22:11.939Z,11.10
2023-05-19T06:24:39.659Z,11.20
2023-05-19T06:27:09.160Z,11.30
2023-05-19T06:29:36.144Z,11.40
2023-05-19T06:32:06.216Z,11.50
2023-05-19T06:34:33.501Z,11.50
2023-05-19T06:37:02.698Z,11.60
2023-05-19T06:39:31.644Z,11.70
2023-05-19T06:41:58.698Z,11.80
2023-05-19T06:44:44.501Z,11.90
2023-05-19T06:47:12.518Z,12.00
2023-05-19T06:49:39.512Z,12.10
2023-05-19T06:52:07.013Z,12.20
2023-05-19T06:54:34.517Z,12.20
2023-05-19T06:57:02.374Z,12.30
2023-05-19T06:59:29.502Z,12.30
2023-05-19T07:01:56.679Z,12.40
2023-05-19T07:04:24.203Z,12.50
2023-05-19T07:06:51.410Z,12.60
2023-05-19T07:09:18.800Z,12.70
2023-05-19T07:11:47.004Z,12.80
2023-05-19T07:14:13.892Z,12.90
2023-05-19T07:16:41.524Z,13.10
2023-05-19T07:19:08.783Z,13.40
2023-05-19T07:21:36.422Z,13.50
2023-05-19T07:24:04.144Z,13.70
2023-05-19T07:26:31.314Z,13.90
2023-05-19T07:28:59.522Z,14.10
2023-05-19T07:31:26.805Z,14.30
2023-05-19T07:33:54.888Z,14.40
2023-05-19T07:36:22.122Z,14.60
2023-05-19T07:38:49.377Z,14.70
2023-05-19T07:41:16.537Z,14.90
2023-05-19T07:43:43.915Z,15.10
2023-05-19T07:46:11.002Z,15.30
2023-05-19T07:48:38.107Z,15.50
2023-05-19T07:51:05.368Z,15.60
2023-05-19T07:53:32.428Z,15.70
2023-05-19T07:55:59.622Z,15.70
2023-05-19T07:58:27.066Z,15.70
2023-05-19T08:00:56.736Z,15.80
2023-05-19T08:03:24.052Z,16.00
2023-05-19T08:05:51.482Z,16.10
2023-05-19T08:08:19.789Z,16.20
2023-05-19T08:13:28.376Z,16.40
2023-05-19T08:15:59.841Z,16.50
2023-05-19T08:18:27.315Z,16.60
2023-05-19T08:20:54.846Z,16.70
2023-05-19T08:23:22.508Z,16.80
2023-05-19T08:25:49.583Z,16.90
2023-05-19T08:28:16.613Z,17.10
2023-05-19T08:30:43.890Z,17.30
2023-05-19T08:33:11.066Z,17.70
2023-05-19T08:35:38.686Z,18.30
2023-05-19T08:38:06.961Z,19.20
2023-05-19T08:40:37.105Z,20.00
2023-05-19T08:43:05.011Z,20.70
2023-05-19T08:45:38.759Z,21.30
2023-05-19T08:51:13.910Z,22.30
2023-05-19T08:53:45.332Z,22.80
2023-05-19T08:56:20.660Z,23.30
2023-05-19T08:58:51.334Z,23.70
2023-05-19T09:01:20.078Z,24.20
2023-05-19T09:03:49.736Z,24.90
2023-05-19T09:06:17.070Z,25.50
2023-05-19T09:08:44.553Z,26.10
2023-05-19T09:11:11.964Z,26.00
2023-05-19T09:13:40.417Z,25.90
2023-05-19T09:16:08.379Z,25.90
2023-05-19T09:18:39.311Z,26.20
2023-05-19T09:21:07.438Z,26.50
2023-05-19T09:23:34.829Z,26.90
2023-05-19T09:26:08.597Z,27.20
2023-05-19T09:28:37.058Z,27.40
2023-05-19T09:31:04.976Z,27.40
2023-05-19T09:33:35.507Z,27.30
2023-05-19T09:36:03.571Z,27.50
2023-05-19T09:38:31.013Z,27.90
2023-05-19T09:41:00.434Z,28.30
2023-05-19T09:43:31.844Z,28.70
2023-05-19T09:46:14.821Z,28.90
2023-05-19T09:48:42.594Z,29.30
2023-05-19T09:51:12.715Z,29.50
2023-05-19T09:53:39.976Z,29.60
2023-05-19T09:56:08.873Z,29.90
2023-05-19T09:58:36.544Z,30.40
2023-05-19T10:01:05.053Z,30.80
2023-05-19T10:03:33.471Z,30.90
2023-05-19T10:06:02.223Z,30.60
2023-05-19T10:08:30.850Z,30.70
2023-05-19T10:10:58.487Z,31.00
2023-05-19T10:13:26.994Z,31.00
2023-05-19T10:15:58.765Z,30.90
2023-05-19T10:18:30.086Z,31.00
2023-05-19T10:20:58.962Z,31.30
2023-05-19T10:23:26.267Z,31.30
2023-05-19T10:25:56.994Z,31.30
2023-05-19T10:28:28.130Z,31.20
2023-05-19T10:30:59.406Z,31.20
2023-05-19T10:33:47.185Z,31.30
2023-05-19T10:36:36.434Z,31.00
2023-05-19T10:39:13.620Z,30.90
2023-05-19T10:41:53.897Z,31.20
2023-05-19T10:44:23.730Z,31.80
2023-05-19T10:46:51.714Z,32.40
2023-05-19T10:49:22.992Z,32.50
2023-05-19T10:51:52.497Z,32.80
2023-05-19T10:54:40.840Z,33.10
2023-05-19T10:57:08.709Z,33.50
2023-05-19T10:59:39.971Z,33.70
2023-05-19T11:02:08.828Z,34.10
2023-05-19T11:04:51.808Z,34.40
2023-05-19T11:07:21.006Z,34.50
2023-05-19T11:09:52.495Z,34.50
2023-05-19T11:12:24.742Z,34.50
2023-05-19T11:14:55.903Z,34.40
2023-05-19T11:17:25.631Z,34.40
2023-05-19T11:19:54.853Z,34.30
2023-05-19T11:22:26.745Z,34.10
2023-05-19T11:24:56.599Z,34.10
2023-05-19T11:27:34.346Z,34.20
2023-05-19T11:30:20.188Z,34.20
2023-05-19T11:32:50.607Z,34.20
2023-05-19T11:35:21.095Z,34.30
2023-05-19T11:37:51.329Z,34.30
2023-05-19T11:40:18.579Z,34.60
2023-05-19T11:42:45.523Z,34.70
2023-05-19T11:45:12.446Z,34.70
2023-05-19T11:47:56.340Z,34.90
2023-05-19T11:50:26.691Z,35.10
2023-05-19T11:52:54.668Z,35.10
2023-05-19T11:55:22.829Z,35.10
2023-05-19T11:58:04.993Z,35.10
2023-05-19T12:00:38.073Z,35.20
2023-05-19T12:03:05.834Z,35.40
2023-05-19T12:05:38.035Z,35.50
2023-05-19T12:08:07.655Z,35.60
2023-05-19T12:10:35.900Z,35.60
2023-05-19T12:13:03.467Z,35.70
2023-05-19T12:15:32.510Z,36.20
2023-05-19T12:18:03.135Z,36.70
2023-05-19T12:20:36.043Z,37.00
2023-05-19T12:23:04.104Z,37.10
2023-05-19T12:25:31.930Z,37.10
2023-05-19T12:28:05.683Z,37.10
2023-05-19T12:30:34.841Z,37.10
2023-05-19T12:33:03.105Z,37.00
2023-05-19T12:35:33.636Z,36.60
2023-05-19T12:38:07.522Z,36.10
2023-05-19T12:40:35.716Z,35.50
2023-05-19T12:43:03.985Z,35.00
2023-05-19T12:45:39.681Z,34.70
2023-05-19T12:48:11.741Z,34.40
2023-05-19T12:50:39.109Z,34.00
2023-05-19T12:53:09.388Z,33.60
2023-05-19T12:55:44.028Z,33.20
2023-05-19T12:58:16.134Z,32.60
2023-05-19T13:00:45.467Z,31.80
2023-05-19T13:03:20.101Z,31.30
2023-05-19T13:05:49.354Z,31.30
2023-05-19T13:08:18.406Z,31.40
2023-05-19T13:10:47.000Z,31.60
2023-05-19T13:13:14.788Z,31.70
2023-05-19T13:15:43.477Z,32.00
2023-05-19T13:18:13.140Z,32.20
2023-05-19T13:20:42.244Z,32.40
2023-05-19T13:23:12.631Z,32.70
2023-05-19T13:25:40.424Z,33.00
2023-05-19T13:28:08.419Z,33.30
2023-05-19T13:30:37.051Z,33.00
2023-05-19T13:33:04.250Z,32.60
2023-05-19T13:35:37.145Z,32.50
2023-05-19T13:38:10.304Z,32.70
2023-05-19T13:40:38.379Z,32.80
2023-05-19T13:43:06.306Z,32.90
2023-05-19T13:45:33.320Z,32.90
2023-05-19T13:48:00.340Z,32.90
2023-05-19T13:50:27.249Z,33.20
2023-05-19T13:52:54.212Z,33.60
2023-05-19T13:55:21.848Z,33.70
2023-05-19T13:57:49.596Z,33.50
2023-05-19T14:00:18.228Z,33.10
2023-05-19T14:02:45.507Z,32.60
2023-05-19T14:05:12.654Z,32.30
2023-05-19T14:07:39.832Z,32.20
2023-05-19T14:10:07.474Z,32.20
2023-05-19T14:12:51.717Z,32.20
2023-05-19T14:15:23.836Z,32.10
2023-05-19T14:17:50.970Z,32.00
2023-05-19T14:20:17.925Z,31.90
2023-05-19T14:22:44.879Z,32.00
2023-05-19T14:25:11.755Z,32.00
2023-05-19T14:27:40.270Z,32.10
2023-05-19T14:30:08.322Z,32.00
2023-05-19T14:35:02.375Z,32.00
2023-05-19T14:37:29.167Z,31.70
2023-05-19T14:39:57.766Z,31.40
2023-05-19T14:42:25.049Z,31.30
2023-05-19T14:44:51.968Z,30.80
2023-05-19T14:47:18.921Z,30.40
2023-05-19T14:49:46.270Z,30.00
2023-05-19T14:52:13.357Z,29.70
2023-05-19T14:54:40.575Z,29.50
2023-05-19T14:57:08.187Z,29.30
2023-05-19T14:59:38.412Z,29.10
2023-05-19T15:02:05.745Z,28.70
2023-05-19T15:04:32.595Z,28.30
2023-05-19T15:09:32.604Z,28.10
2023-05-19T15:12:01.215Z,28.10
2023-05-19T15:14:30.104Z,28.10
2023-05-19T15:16:57.989Z,28.30
2023-05-19T15:19:25.138Z,28.30
2023-05-19T15:21:52.123Z,28.40
2023-05-19T15:24:19.179Z,28.20
2023-05-19T15:26:46.203Z,28.10
2023-05-19T15:29:14.144Z,28.10
2023-05-19T15:31:41.357Z,28.20
2023-05-19T15:34:08.439Z,28.30
2023-05-19T15:36:35.582Z,28.40
2023-05-19T15:39:03.839Z,28.60
2023-05-19T15:41:30.760Z,28.70
2023-05-19T15:44:00.205Z,28.80
2023-05-19T15:46:27.441Z,29.00
2023-05-19T15:48:54.555Z,29.00
2023-05-19T15:51:21.542Z,28.80
2023-05-19T15:53:48.571Z,28.70
2023-05-19T15:56:15.875Z,28.50
2023-05-19T15:58:42.701Z,28.60
2023-05-19T16:01:09.826Z,28.70
2023-05-19T16:03:36.834Z,28.90
2023-05-19T16:06:04.123Z,28.90
2023-05-19T16:08:31.175Z,28.90
2023-05-19T16:10:58.056Z,28.90
2023-05-19T16:13:25.049Z,29.00
2023-05-19T16:15:52.592Z,29.10
2023-05-19T16:18:19.762Z,29.00
2023-05-19T16:20:46.628Z,28.70
2023-05-19T16:23:13.443Z,28.60
2023-05-19T16:25:41.457Z,28.50
2023-05-19T16:28:08.609Z,28.40
2023-05-19T16:30:35.845Z,28.60
2023-05-19T16:33:03.047Z,28.80
2023-05-19T16:35:30.180Z,29.00
2023-05-19T16:37:57.146Z,29.00
2023-05-19T16:40:24.308Z,29.00
2023-05-19T16:42:53.151Z,29.10
2023-05-19T16:45:20.097Z,28.80
2023-05-19T16:47:47.002Z,28.60
2023-05-19T16:50:13.992Z,28.50
2023-05-19T16:52:40.843Z,28.40
2023-05-19T16:55:08.121Z,28.20
2023-05-19T16:57:35.066Z,27.80
2023-05-19T17:00:01.939Z,27.70
2023-05-19T17:02:28.911Z,27.60
2023-05-19T17:04:55.913Z,27.70
2023-05-19T17:07:22.726Z,27.70
2023-05-19T17:09:49.566Z,27.50
2023-05-19T17:12:16.458Z,27.50
2023-05-19T17:14:44.131Z,27.60
2023-05-19T17:17:11.078Z,27.60
2023-05-19T17:19:37.908Z,27.30
2023-05-19T17:22:05.041Z,26.90
2023-05-19T17:24:33.307Z,26.80
2023-05-19T17:27:00.861Z,26.60
2023-05-19T17:29:28.037Z,26.50
2023-05-19T17:31:55.459Z,26.20
2023-05-19T17:34:22.557Z,26.20
2023-05-19T17:36:52.138Z,26.00
2023-05-19T17:39:20.292Z,25.90
2023-05-19T17:41:47.243Z,25.70
2023-05-19T17:44:14.874Z,25.40
2023-05-19T17:46:41.691Z,25.10
2023-05-19T17:49:10.580Z,24.80
2023-05-19T17:51:37.757Z,24.60
2023-05-19T17:54:05.366Z,24.30
2023-05-19T17:56:36.928Z,23.80
2023-05-19T17:59:03.974Z,23.30
2023-05-19T18:01:32.270Z,22.80
2023-05-19T18:03:59.348Z,22.50
2023-05-19T18:06:27.778Z,22.20
2023-05-19T18:08:58.096Z,22.00
2023-05-19T18:11:26.397Z,21.80
2023-05-19T18:13:53.336Z,21.50
2023-05-19T18:16:20.288Z,21.40
2023-05-19T18:18:50.442Z,21.20
2023-05-19T18:21:18.201Z,21.10
2023-05-19T18:23:45.819Z,21.10
2023-05-19T18:26:13.246Z,20.90
2023-05-19T18:28:41.187Z,20.80
2023-05-19T18:31:17.390Z,20.70
2023-05-19T18:33:45.089Z,20.60
2023-05-19T18:36:12.360Z,20.50
2023-05-19T18:38:39.569Z,20.40
2023-05-19T18:41:07.337Z,20.30
2023-05-19T18:43:34.472Z,20.20
2023-05-19T18:46:01.443Z,20.10
2023-05-19T18:48:29.666Z,20.00
2023-05-19T18:50:57.230Z,19.90
2023-05-19T18:53:24.133Z,19.80
2023-05-19T18:55:51.031Z,19.80
2023-05-19T18:58:18.768Z,19.70
2023-05-19T19:00:45.790Z,19.60
2023-05-19T19:03:12.844Z,19.60
2023-05-19T19:05:40.122Z,19.50
2023-05-19T19:08:07.129Z,19.50
2023-05-19T19:10:37.317Z,19.50
2023-05-19T19:13:04.214Z,19.40
2023-05-19T19:15:31.704Z,19.40
2023-05-19T19:17:58.556Z,19.40
2023-05-19T19:20:25.499Z,19.30
2023-05-19T19:22:52.945Z,19.30
2023-05-19T19:25:21.896Z,19.30
2023-05-19T19:27:50.079Z,19.20
2023-05-19T19:30:16.967Z,19.10
2023-05-19T19:32:43.923Z,19.10
2023-05-19T19:35:11.267Z,19.00
2023-05-19T19:37:38.275Z,19.00
2023-05-19T19:40:06.185Z,18.90
2023-05-19T19:42:33.167Z,18.90
2023-05-19T19:45:00.234Z,18.80
2023-05-19T19:47:27.457Z,18.80
2023-05-19T19:49:54.336Z,18.70
2023-05-19T19:52:21.156Z,18.70
2023-05-19T19:54:48.198Z,18.70
2023-05-19T19:57:17.216Z,18.70
2023-05-19T19:59:44.132Z,18.60
2023-05-19T20:02:11.209Z,18.60
2023-05-19T20:04:38.380Z,18.50
2023-05-19T20:07:05.325Z,18.40
2023-05-19T20:09:32.168Z,18.30
2023-05-19T20:12:00.515Z,18.30
2023-05-19T20:14:27.382Z,18.30
2023-05-19T20:16:54.286Z,18.20
2023-05-19T20:19:21.596Z,18.10
2023-05-19T20:21:48.492Z,18.10
2023-05-19T20:24:15.399Z,18.00
2023-05-19T20:26:42.258Z,17.90
2023-05-19T20:29:09.185Z,17.90
2023-05-19T20:31:36.113Z,17.80
2023-05-19T20:34:03.054Z,17.70
2023-05-19T20:36:30.063Z,17.60
2023-05-19T20:38:57.007Z,17.60
2023-05-19T20:41:23.820Z,17.50
2023-05-19T20:43:51.013Z,17.40
2023-05-19T20:46:18.040Z,17.40
2023-05-19T20:48:44.927Z,17.30
2023-05-19T20:51:11.827Z,17.20
2023-05-19T20:53:38.789Z,17.20
2023-05-19T20:56:06.863Z,17.10
2023-05-19T20:58:33.741Z,17.10
2023-05-19T21:01:00.700Z,17.00
2023-05-19T21:03:28.620Z,16.90
2023-05-19T21:05:56.451Z,16.90
2023-05-19T21:08:24.164Z,16.80
2023-05-19T21:10:51.210Z,16.80
2023-05-19T21:13:18.606Z,16.70
2023-05-19T21:15:45.543Z,16.70
2023-05-19T21:18:12.944Z,16.70
2023-05-19T21:20:40.016Z,16.60
2023-05-19T21:23:07.010Z,16.60
2023-05-19T21:25:34.483Z,16.50
2023-05-19T21:28:02.051Z,16.50
2023-05-19T21:30:28.852Z,16.50
2023-05-19T21:32:55.820Z,16.40
2023-05-19T21:35:22.770Z,16.40
2023-05-19T21:37:49.617Z,16.30
2023-05-19T21:40:16.510Z,16.30
2023-05-19T21:42:43.377Z,16.20
2023-05-19T21:45:10.690Z,16.20
2023-05-19T21:47:37.698Z,16.10
2023-05-19T21:50:04.897Z,16.00
2023-05-19T21:52:31.748Z,16.00
2023-05-19T21:54:58.843Z,15.90
2023-05-19T21:57:25.711Z,15.90
2023-05-19T21:59:52.535Z,15.90
2023-05-19T22:02:19.433Z,15.80
2023-05-19T22:04:46.385Z,15.80
2023-05-19T22:07:13.313Z,15.70
2023-05-19T22:09:40.157Z,15.70
2023-05-19T22:12:07.642Z,15.60
2023-05-19T22:14:35.158Z,15.60
2023-05-19T22:17:02.533Z,15.60
2023-05-19T22:19:29.511Z,15.60
2023-05-19T22:22:09.912Z,15.60
2023-05-19T22:24:41.535Z,15.60
2023-05-19T22:27:08.934Z,15.50
2023-05-19T22:29:38.711Z,15.50
2023-05-19T22:32:09.228Z,15.40
2023-05-19T22:34:36.246Z,15.40
2023-05-19T22:37:03.664Z,15.30
2023-05-19T22:39:30.663Z,15.30
2023-05-19T22:41:57.690Z,15.30
2023-05-19T22:44:24.547Z,15.20
2023-05-19T22:46:51.407Z,15.20
2023-05-19T22:49:18.781Z,15.10
2023-05-19T22:51:46.104Z,15.10
2023-05-19T22:54:13.105Z,15.10
2023-05-19T22:56:40.061Z,15.00
2023-05-19T22:59:06.986Z,15.00
2023-05-19T23:01:33.992Z,15.00
2023-05-19T23:04:01.304Z,14.90
2023-05-19T23:06:28.290Z,14.90
2023-05-19T23:09:02.895Z,14.90
2023-05-19T23:11:30.253Z,14.90
2023-05-19T23:13:57.094Z,14.80
2023-05-19T23:16:24.093Z,14.80
2023-05-19T23:18:51.022Z,14.70
2023-05-19T23:21:18.016Z,14.70
2023-05-19T23:23:44.922Z,14.70
2023-05-19T23:26:13.425Z,14.60
2023-05-19T23:28:42.229Z,14.60
2023-05-19T23:31:09.799Z,14.60
2023-05-19T23:33:36.958Z,14.50
2023-05-19T23:36:08.698Z,14.50
2023-05-19T23:38:36.912Z,14.50
2023-05-19T23:41:03.826Z,14.40
2023-05-19T23:43:32.768Z,14.40
2023-05-19T23:46:00.220Z,14.40
2023-05-19T23:48:28.745Z,14.40
2023-05-19T23:50:55.767Z,14.30
2023-05-19T23:53:22.701Z,14.30
2023-05-19T23:55:49.713Z,14.30
2023-05-19T23:58:16.563Z,14.20
